createdAt,value
2018-09-21T00:01:18.720Z,16.87
2018-09-21T00:03:53.000Z,16.82
2018-09-21T00:06:22.148Z,16.82
2018-09-21T00:08:51.009Z,16.75
2018-09-21T00:11:20.204Z,16.73
2018-09-21T00:13:49.621Z,16.61
2018-09-21T00:16:18.921Z,16.62
2018-09-21T00:18:47.647Z,16.53
2018-09-21T00:21:16.620Z,16.45
2018-09-21T00:23:45.288Z,16.44
2018-09-21T00:26:13.927Z,16.43
2018-09-21T00:28:42.562Z,16.42
2018-09-21T00:31:11.206Z,16.48
2018-09-21T00:33:39.873Z,16.45
2018-09-21T00:36:08.915Z,16.43
2018-09-21T00:38:37.560Z,16.39
2018-09-21T00:41:06.245Z,16.38
2018-09-21T00:43:34.935Z,16.33
2018-09-21T00:46:03.623Z,16.20
2018-09-21T00:48:32.257Z,16.21
2018-09-21T00:51:00.941Z,16.14
2018-09-21T00:53:29.592Z,16.14
2018-09-21T00:55:58.247Z,16.15
2018-09-21T00:58:26.886Z,16.17
2018-09-21T01:00:55.515Z,16.11
2018-09-21T01:03:24.148Z,16.06
2018-09-21T01:05:52.744Z,15.97
2018-09-21T01:08:21.404Z,15.91
2018-09-21T01:10:50.999Z,15.81
2018-09-21T01:13:19.635Z,15.76
2018-09-21T01:15:48.477Z,15.62
2018-09-21T01:18:17.726Z,15.67
2018-09-21T01:20:46.385Z,15.54
2018-09-21T01:23:15.025Z,15.53
2018-09-21T01:25:43.702Z,15.50
2018-09-21T01:28:12.319Z,15.45
2018-09-21T01:30:40.953Z,15.32
2018-09-21T01:33:09.600Z,15.24
2018-09-21T01:35:38.374Z,15.23
2018-09-21T01:38:07.101Z,15.11
2018-09-21T01:40:35.800Z,15.10
2018-09-21T01:43:04.540Z,14.98
2018-09-21T01:45:33.200Z,14.92
2018-09-21T01:48:01.908Z,14.88
2018-09-21T01:50:30.557Z,14.83
2018-09-21T01:52:59.188Z,14.80
2018-09-21T01:55:27.827Z,14.76
2018-09-21T01:57:56.446Z,14.75
2018-09-21T02:00:25.069Z,14.73
2018-09-21T02:02:53.695Z,14.74
2018-09-21T02:05:22.378Z,14.73
2018-09-21T02:07:51.012Z,14.75
2018-09-21T02:10:19.730Z,14.65
2018-09-21T02:12:48.423Z,14.67
2018-09-21T02:15:17.066Z,14.65
2018-09-21T02:17:45.727Z,14.65
2018-09-21T02:20:14.374Z,14.67
2018-09-21T02:22:42.995Z,14.67
2018-09-21T02:25:11.636Z,14.73
2018-09-21T02:27:40.239Z,14.74
2018-09-21T02:30:08.937Z,14.65
2018-09-21T02:32:37.609Z,14.70
2018-09-21T02:35:06.468Z,14.75
2018-09-21T02:37:35.071Z,14.67
2018-09-21T02:40:03.787Z,14.66
2018-09-21T02:42:32.460Z,14.63
2018-09-21T02:45:01.093Z,14.57
2018-09-21T02:47:29.703Z,14.58
2018-09-21T02:49:58.335Z,14.60
2018-09-21T02:52:26.979Z,14.50
2018-09-21T02:54:55.601Z,14.46
2018-09-21T02:57:24.265Z,14.47
2018-09-21T02:59:52.908Z,14.43
2018-09-21T03:02:21.617Z,14.45
2018-09-21T03:04:53.980Z,14.48
2018-09-21T03:07:23.208Z,14.44
2018-09-21T03:09:51.883Z,14.44
2018-09-21T03:12:20.611Z,14.49
2018-09-21T03:14:49.380Z,14.39
2018-09-21T03:17:18.039Z,14.31
2018-09-21T03:19:46.687Z,14.35
2018-09-21T03:22:15.329Z,14.37
2018-09-21T03:24:43.968Z,14.37
2018-09-21T03:27:12.634Z,14.37
2018-09-21T03:29:41.295Z,14.36
2018-09-21T03:32:09.959Z,14.31
2018-09-21T03:34:38.613Z,14.26
2018-09-21T03:37:07.279Z,14.23
2018-09-21T03:39:36.030Z,14.19
2018-09-21T03:42:04.728Z,14.21
2018-09-21T03:44:33.468Z,14.18
2018-09-21T03:47:02.160Z,14.10
2018-09-21T03:49:30.796Z,14.12
2018-09-21T03:51:59.452Z,14.11
2018-09-21T03:54:28.089Z,14.13
2018-09-21T03:56:56.738Z,14.19
2018-09-21T03:59:25.417Z,14.11
2018-09-21T04:01:54.063Z,14.15
2018-09-21T04:04:22.750Z,14.09
2018-09-21T04:06:51.538Z,14.06
2018-09-21T04:09:20.184Z,14.04
2018-09-21T04:11:48.856Z,14.04
2018-09-21T04:14:17.547Z,14.00
2018-09-21T04:16:46.183Z,14.05
2018-09-21T04:19:14.923Z,14.01
2018-09-21T04:21:43.576Z,14.06
2018-09-21T04:24:12.943Z,14.08
2018-09-21T04:26:41.621Z,14.08
2018-09-21T04:31:44.107Z,14.16
2018-09-21T04:34:12.747Z,14.15
2018-09-21T04:36:41.407Z,14.11
2018-09-21T04:39:11.680Z,14.17
2018-09-21T04:41:40.362Z,14.26
2018-09-21T04:44:09.530Z,14.29
2018-09-21T04:46:38.701Z,14.28
2018-09-21T04:49:07.624Z,14.25
2018-09-21T04:51:36.244Z,14.21
2018-09-21T04:54:04.958Z,14.25
2018-09-21T04:56:33.716Z,14.27
2018-09-21T04:59:02.374Z,14.41
2018-09-21T05:01:31.077Z,14.41
2018-09-21T05:03:59.701Z,14.49
2018-09-21T05:06:28.402Z,14.47
2018-09-21T05:08:57.060Z,14.58
2018-09-21T05:11:25.727Z,14.61
2018-09-21T05:13:54.477Z,14.65
2018-09-21T05:16:24.084Z,14.73
2018-09-21T05:18:52.835Z,14.72
2018-09-21T05:21:21.466Z,14.83
2018-09-21T05:23:50.095Z,14.88
2018-09-21T05:26:18.767Z,14.89
2018-09-21T05:28:47.563Z,14.97
2018-09-21T05:31:16.207Z,15.06
2018-09-21T05:33:44.839Z,15.14
2018-09-21T05:36:13.500Z,15.24
2018-09-21T05:38:42.158Z,15.38
2018-09-21T05:41:10.798Z,15.43
2018-09-21T05:43:39.443Z,15.53
2018-09-21T05:46:08.283Z,15.60
2018-09-21T05:48:36.910Z,15.62
2018-09-21T05:51:05.563Z,15.77
2018-09-21T05:53:34.230Z,15.87
2018-09-21T05:56:02.964Z,15.93
2018-09-21T05:58:31.651Z,15.92
2018-09-21T06:01:00.276Z,16.00
2018-09-21T06:03:28.967Z,16.07
2018-09-21T06:05:57.638Z,16.13
2018-09-21T06:08:26.350Z,16.19
2018-09-21T06:10:54.985Z,16.31
2018-09-21T06:13:23.700Z,16.39
2018-09-21T06:15:52.360Z,16.49
2018-09-21T06:18:21.131Z,16.53
2018-09-21T06:20:49.859Z,16.50
2018-09-21T06:23:18.521Z,16.59
2018-09-21T06:25:47.226Z,16.67
2018-09-21T06:28:15.931Z,16.68
2018-09-21T06:30:44.577Z,16.80
2018-09-21T06:33:13.240Z,16.86
2018-09-21T06:35:41.937Z,16.77
2018-09-21T06:38:10.644Z,17.01
2018-09-21T06:40:39.374Z,17.21
2018-09-21T06:43:08.104Z,17.31
2018-09-21T06:45:36.785Z,17.38
2018-09-21T06:48:06.660Z,17.30
2018-09-21T06:50:35.376Z,17.36
2018-09-21T06:53:04.074Z,17.41
2018-09-21T06:55:33.232Z,17.44
2018-09-21T06:58:02.125Z,17.47
2018-09-21T07:00:30.773Z,17.56
2018-09-21T07:02:59.414Z,17.49
2018-09-21T07:05:28.153Z,17.72
2018-09-21T07:07:56.850Z,17.79
2018-09-21T07:10:25.573Z,17.87
2018-09-21T07:12:54.243Z,17.78
2018-09-21T07:15:22.944Z,18.04
2018-09-21T07:17:51.571Z,18.03
2018-09-21T07:20:20.258Z,18.14
2018-09-21T07:22:48.950Z,18.17
2018-09-21T07:25:17.786Z,18.43
2018-09-21T07:27:46.484Z,18.45
2018-09-21T07:30:19.077Z,18.50
2018-09-21T07:32:47.877Z,18.59
2018-09-21T07:35:16.599Z,18.74
2018-09-21T07:37:45.263Z,18.66
2018-09-21T07:40:14.045Z,18.75
2018-09-21T07:42:42.734Z,18.77
2018-09-21T07:45:11.402Z,18.77
2018-09-21T07:47:40.161Z,18.80
2018-09-21T07:50:08.968Z,18.87
2018-09-21T07:52:37.692Z,19.02
2018-09-21T07:55:06.406Z,19.10
2018-09-21T07:57:35.104Z,19.08
2018-09-21T08:00:05.086Z,19.02
2018-09-21T08:02:33.795Z,19.24
2018-09-21T08:05:02.480Z,19.37
2018-09-21T08:07:31.196Z,19.40
2018-09-21T08:09:59.852Z,19.22
2018-09-21T08:12:28.568Z,19.31
2018-09-21T08:14:57.224Z,19.38
2018-09-21T08:17:25.920Z,19.50
2018-09-21T08:19:54.592Z,19.53
2018-09-21T08:22:23.256Z,19.78
2018-09-21T08:24:52.043Z,19.91
2018-09-21T08:27:21.027Z,19.91
2018-09-21T08:29:49.944Z,20.01
2018-09-21T08:32:18.630Z,20.24
2018-09-21T08:34:47.404Z,20.43
2018-09-21T08:37:16.144Z,20.67
2018-09-21T08:39:44.829Z,20.90
2018-09-21T08:42:13.595Z,21.10
2018-09-21T08:44:42.348Z,21.22
2018-09-21T08:47:11.105Z,21.14
2018-09-21T08:49:39.861Z,21.30
2018-09-21T08:52:08.696Z,21.40
2018-09-21T08:54:37.423Z,21.51
2018-09-21T08:57:06.147Z,21.38
2018-09-21T08:59:34.938Z,21.36
2018-09-21T09:02:03.642Z,21.49
2018-09-21T09:04:32.323Z,21.58
2018-09-21T09:07:00.978Z,21.68
2018-09-21T09:09:29.654Z,21.82
2018-09-21T09:11:58.395Z,21.98
2018-09-21T09:14:27.125Z,22.20
2018-09-21T09:16:55.779Z,22.12
2018-09-21T09:19:24.470Z,22.27
2018-09-21T09:21:53.176Z,22.42
2018-09-21T09:24:21.889Z,22.64
2018-09-21T09:26:50.534Z,22.81
2018-09-21T09:29:19.141Z,22.78
2018-09-21T09:31:47.810Z,22.90
2018-09-21T09:34:16.508Z,23.05
2018-09-21T09:36:45.243Z,23.09
2018-09-21T09:39:14.504Z,23.12
2018-09-21T09:41:43.137Z,23.13
2018-09-21T09:44:12.116Z,23.34
2018-09-21T09:46:41.048Z,23.32
2018-09-21T09:49:09.880Z,23.46
2018-09-21T09:51:38.648Z,23.51
2018-09-21T09:54:07.516Z,23.50
2018-09-21T09:56:36.361Z,23.43
2018-09-21T09:59:05.076Z,23.77
2018-09-21T10:01:33.825Z,23.78
2018-09-21T10:04:02.685Z,24.07
2018-09-21T10:06:31.759Z,24.24
2018-09-21T10:09:00.418Z,24.73
2018-09-21T10:11:29.672Z,25.16
2018-09-21T10:13:58.411Z,24.77
2018-09-21T10:16:27.168Z,25.24
2018-09-21T10:18:56.000Z,25.34
2018-09-21T10:21:24.809Z,25.42
2018-09-21T10:23:53.544Z,25.14
2018-09-21T10:26:22.248Z,25.29
2018-09-21T10:28:51.186Z,25.29
2018-09-21T10:31:20.145Z,25.37
2018-09-21T10:33:49.044Z,25.43
2018-09-21T10:36:17.736Z,25.53
2018-09-21T10:38:46.502Z,25.77
2018-09-21T10:41:15.307Z,25.98
2018-09-21T10:43:44.045Z,26.23
2018-09-21T10:46:12.788Z,26.57
2018-09-21T10:48:41.533Z,26.70
2018-09-21T10:51:10.251Z,27.06
2018-09-21T10:53:39.204Z,27.40
2018-09-21T10:56:08.019Z,27.23
2018-09-21T10:58:36.871Z,27.21
2018-09-21T11:01:05.668Z,27.40
2018-09-21T11:03:34.472Z,27.70
2018-09-21T11:06:03.187Z,27.67
2018-09-21T11:08:31.961Z,27.59
2018-09-21T11:11:00.632Z,27.80
2018-09-21T11:13:29.345Z,27.97
2018-09-21T11:15:58.048Z,28.06
2018-09-21T11:18:26.730Z,28.04
2018-09-21T11:20:55.709Z,28.08
2018-09-21T11:23:24.452Z,28.21
2018-09-21T11:25:53.229Z,28.34
2018-09-21T11:28:21.981Z,28.60
2018-09-21T11:30:50.666Z,28.43
2018-09-21T11:33:19.427Z,28.54
2018-09-21T11:35:48.197Z,28.93
2018-09-21T11:38:16.979Z,28.85
2018-09-21T11:40:45.651Z,28.81
2018-09-21T11:43:14.344Z,29.00
2018-09-21T11:45:43.213Z,29.05
2018-09-21T11:48:11.985Z,29.35
2018-09-21T11:50:40.752Z,29.09
2018-09-21T11:53:09.487Z,28.97
2018-09-21T11:55:38.311Z,28.92
2018-09-21T11:58:07.832Z,28.75
2018-09-21T12:00:36.744Z,28.64
2018-09-21T12:03:05.469Z,28.40
2018-09-21T12:05:34.665Z,28.45
2018-09-21T12:08:03.560Z,28.16
2018-09-21T12:10:32.405Z,27.87
2018-09-21T12:13:01.149Z,27.93
2018-09-21T12:15:29.870Z,27.85
2018-09-21T12:17:58.633Z,27.73
2018-09-21T12:20:27.724Z,27.80
2018-09-21T12:22:56.402Z,27.38
2018-09-21T12:25:25.164Z,27.49
2018-09-21T12:27:53.845Z,27.35
2018-09-21T12:30:22.591Z,27.28
2018-09-21T12:32:51.364Z,27.37
2018-09-21T12:35:20.123Z,27.27
2018-09-21T12:37:48.852Z,27.39
2018-09-21T12:40:17.644Z,27.37
2018-09-21T12:42:46.307Z,27.34
2018-09-21T12:45:15.105Z,27.36
2018-09-21T12:47:43.775Z,27.29
2018-09-21T12:50:12.534Z,27.11
2018-09-21T12:52:41.310Z,26.84
2018-09-21T12:55:10.197Z,27.09
2018-09-21T12:57:38.975Z,27.34
2018-09-21T13:00:10.909Z,27.46
2018-09-21T13:02:40.039Z,27.48
2018-09-21T13:05:08.771Z,27.48
2018-09-21T13:07:37.496Z,27.54
2018-09-21T13:10:06.364Z,27.73
2018-09-21T13:12:35.132Z,27.70
2018-09-21T13:15:03.977Z,28.07
2018-09-21T13:17:32.632Z,28.10
2018-09-21T13:20:01.357Z,28.11
2018-09-21T13:22:30.307Z,28.31
2018-09-21T13:24:59.099Z,28.41
2018-09-21T13:27:27.831Z,28.33
2018-09-21T13:29:56.654Z,28.46
2018-09-21T13:32:25.460Z,28.49
2018-09-21T13:34:54.183Z,28.56
2018-09-21T13:37:22.858Z,28.89
2018-09-21T13:39:51.594Z,29.25
2018-09-21T13:42:20.375Z,29.29
2018-09-21T13:44:49.135Z,29.52
2018-09-21T13:47:17.828Z,29.62
2018-09-21T13:49:46.612Z,29.83
2018-09-21T13:52:15.342Z,30.19
2018-09-21T13:54:44.140Z,30.28
2018-09-21T13:57:12.820Z,30.21
2018-09-21T13:59:41.557Z,30.44
2018-09-21T14:02:10.264Z,30.22
2018-09-21T14:04:38.944Z,30.36
2018-09-21T14:07:07.594Z,29.80
2018-09-21T14:09:36.316Z,29.76
2018-09-21T14:12:04.976Z,29.95
2018-09-21T14:14:33.745Z,30.15
2018-09-21T14:17:02.524Z,30.43
2018-09-21T14:19:31.213Z,31.02
2018-09-21T14:22:00.000Z,31.05
2018-09-21T14:24:28.726Z,31.25
2018-09-21T14:26:57.487Z,31.44
2018-09-21T14:29:26.338Z,31.74
2018-09-21T14:31:55.094Z,31.77
2018-09-21T14:34:23.878Z,31.56
2018-09-21T14:36:52.669Z,30.62
2018-09-21T14:39:21.376Z,30.06
2018-09-21T14:41:50.055Z,29.35
2018-09-21T14:44:18.834Z,28.98
2018-09-21T14:46:47.509Z,28.58
2018-09-21T14:49:16.239Z,28.29
2018-09-21T14:51:45.633Z,28.57
2018-09-21T14:54:14.529Z,28.52
2018-09-21T14:56:43.209Z,28.90
2018-09-21T14:59:11.964Z,28.64
2018-09-21T15:01:40.775Z,28.74
2018-09-21T15:04:09.632Z,28.61
2018-09-21T15:06:38.467Z,28.25
2018-09-21T15:09:09.259Z,27.86
2018-09-21T15:11:38.541Z,27.73
2018-09-21T15:14:07.414Z,27.35
2018-09-21T15:16:36.409Z,27.05
2018-09-21T15:19:05.249Z,26.88
2018-09-21T15:21:34.332Z,26.78
2018-09-21T15:24:03.359Z,26.75
2018-09-21T15:26:32.130Z,26.65
2018-09-21T15:29:00.909Z,26.56
2018-09-21T15:31:29.613Z,26.19
2018-09-21T15:33:58.602Z,26.03
2018-09-21T15:36:27.384Z,26.09
2018-09-21T15:38:56.109Z,26.03
2018-09-21T15:41:24.838Z,25.94
2018-09-21T15:43:53.597Z,25.86
2018-09-21T15:46:22.308Z,25.79
2018-09-21T15:48:51.164Z,25.58
2018-09-21T15:51:19.895Z,25.21
2018-09-21T15:53:48.851Z,25.26
2018-09-21T15:56:17.745Z,25.20
2018-09-21T15:58:46.657Z,25.09
2018-09-21T16:01:15.436Z,24.93
2018-09-21T16:03:44.189Z,24.90
2018-09-21T16:06:13.075Z,24.81
2018-09-21T16:08:42.655Z,24.58
2018-09-21T16:11:11.495Z,24.41
2018-09-21T16:13:40.365Z,24.19
2018-09-21T16:16:09.213Z,24.03
2018-09-21T16:18:37.942Z,23.82
2018-09-21T16:21:06.711Z,23.76
2018-09-21T16:23:35.519Z,23.55
2018-09-21T16:26:04.221Z,23.34
2018-09-21T16:28:32.931Z,23.13
2018-09-21T16:31:01.746Z,23.02
2018-09-21T16:33:30.489Z,22.90
2018-09-21T16:35:59.367Z,22.76
2018-09-21T16:38:33.655Z,22.69
2018-09-21T16:41:02.690Z,22.50
2018-09-21T16:43:31.491Z,22.38
2018-09-21T16:46:00.223Z,22.40
2018-09-21T16:48:28.949Z,22.26
2018-09-21T16:50:57.786Z,22.17
2018-09-21T16:53:28.214Z,22.15
2018-09-21T16:55:57.919Z,22.07
2018-09-21T16:58:26.676Z,22.05
2018-09-21T17:00:55.434Z,22.05
2018-09-21T17:03:24.140Z,21.94
2018-09-21T17:05:52.886Z,21.79
2018-09-21T17:08:21.585Z,21.79
2018-09-21T17:10:50.377Z,21.75
2018-09-21T17:13:19.205Z,21.69
2018-09-21T17:15:48.118Z,21.61
2018-09-21T17:18:16.928Z,21.54
2018-09-21T17:20:45.626Z,21.61
2018-09-21T17:23:14.346Z,21.42
2018-09-21T17:25:43.070Z,21.37
2018-09-21T17:28:12.724Z,21.25
2018-09-21T17:30:41.482Z,21.23
2018-09-21T17:33:10.459Z,21.15
2018-09-21T17:35:39.275Z,21.16
2018-09-21T17:38:08.018Z,21.18
2018-09-21T17:40:36.758Z,21.11
2018-09-21T17:43:05.598Z,21.15
2018-09-21T17:45:34.384Z,21.07
2018-09-21T17:48:03.162Z,20.97
2018-09-21T17:50:32.203Z,21.01
2018-09-21T17:53:00.988Z,20.97
2018-09-21T17:55:29.761Z,20.99
2018-09-21T17:57:58.510Z,20.96
2018-09-21T18:00:27.334Z,20.99
2018-09-21T18:02:56.058Z,20.94
2018-09-21T18:05:24.998Z,20.96
2018-09-21T18:07:53.732Z,20.94
2018-09-21T18:10:22.448Z,20.98
2018-09-21T18:12:51.189Z,20.94
